Time;durP1;ratioP1;P1;durP2;ratioP2;P2;SDS_P1;SDS_P2;PMS_P1;PMS_P2;Temp;Humidity;BMP_temperature;BMP_pressure;BME280_temperature;BME280_humidity;BME280_pressure;Samples;Min_cycle;Max_cycle;Signal;HPM_P1;HPM_P2
2022/09/09 00:01:28;;;;;;;;;;;563.80;2432.00;;;;;;5071157;28;19974;-59
2022/09/09 00:03:56;;;;;;;;;;;563.60;2432.00;;;;;;5071156;28;19909;-66
2022/09/09 00:06:25;;;;;;;;;;;563.50;2432.00;;;;;;5071038;28;20007;-58
2022/09/09 00:09:00;;;;;;;;;;;563.30;2432.00;;;;;;5071096;28;19916;-57
2022/09/09 00:11:50;;;;;;;;;;;563.30;2432.00;;;;;;5071127;28;19908;-57
2022/09/09 00:14:33;;;;;;;;;;;563.30;2432.00;;;;;;4970122;28;20380;-70
2022/09/09 00:17:02;;;;;;;;;;;563.40;2432.00;;;;;;4970207;28;20419;-57
2022/09/09 00:19:36;;;;;;;;;;;563.40;2432.00;;;;;;4970264;28;20009;-57
2022/09/09 00:22:20;;;;;;;;;;;563.40;2432.00;;;;;;4969817;28;19952;-59
2022/09/09 00:24:49;;;;;;;;;;;563.50;2432.00;;;;;;4969958;28;19921;-57
2022/09/09 00:27:28;;;;;;;;;;;563.60;2432.00;;;;;;4970048;28;19910;-57
2022/09/09 00:30:00;;;;;;;;;;;563.60;2432.00;;;;;;4970195;28;19910;-68
2022/09/09 00:32:27;;;;;;;;;;;563.60;2432.00;;;;;;4969809;28;20005;-58
2022/09/09 00:35:15;;;;;;;;;;;563.60;2432.00;;;;;;4969904;28;19914;-57
2022/09/09 00:37:42;;;;;;;;;;;563.60;2432.00;;;;;;4969796;28;20001;-58
2022/09/09 00:40:22;;;;;;;;;;;563.60;2432.00;;;;;;4970153;28;19946;-68
2022/09/09 00:42:49;;;;;;;;;;;563.60;2432.00;;;;;;4970066;28;19910;-67
2022/09/09 00:45:15;;;;;;;;;;;563.60;2432.00;;;;;;4969825;28;19914;-57
2022/09/09 00:47:42;;;;;;;;;;;563.60;2432.00;;;;;;4969641;28;19910;-57
2022/09/09 00:50:32;;;;;;;;;;;563.60;2432.00;;;;;;4975273;28;19917;-67
2022/09/09 00:53:13;;;;;;;;;;;563.50;2432.00;;;;;;5070574;28;19924;-58
2022/09/09 00:55:40;;;;;;;;;;;563.50;2432.00;;;;;;5070586;28;19913;-67
2022/09/09 00:58:07;;;;;;;;;;;563.50;2432.00;;;;;;5070619;28;19909;-68
2022/09/09 01:00:53;;;;;;;;;;;563.50;2432.00;;;;;;5070297;28;20424;-57
2022/09/09 01:03:31;;;;;;;;;;;563.60;2432.00;;;;;;5052748;28;20100;-57
2022/09/09 01:06:04;;;;;;;;;;;563.60;2432.00;;;;;;5073100;28;20389;-57
2022/09/09 01:08:33;;;;;;;;;;;563.70;2432.00;;;;;;5074450;28;19909;-66
2022/09/09 01:10:59;;;;;;;;;;;563.60;2432.00;;;;;;5074676;28;19908;-58
2022/09/09 01:13:33;;;;;;;;;;;563.60;2432.00;;;;;;5074878;28;19923;-57
2022/09/09 01:15:59;;;;;;;;;;;563.70;2432.00;;;;;;5074452;28;20436;-68
2022/09/09 01:18:45;;;;;;;;;;;563.50;2432.00;;;;;;5074329;28;20362;-59
2022/09/09 01:21:13;;;;;;;;;;;563.40;2432.00;;;;;;5073937;28;19959;-58
2022/09/09 01:23:56;;;;;;;;;;;563.50;2432.00;;;;;;5074282;28;20812;-57
2022/09/09 01:26:25;;;;;;;;;;;563.50;2432.00;;;;;;5074342;28;20343;-57
2022/09/09 01:28:52;;;;;;;;;;;563.50;2432.00;;;;;;5074292;28;19971;-57
2022/09/09 01:31:21;;;;;;;;;;;563.50;2432.00;;;;;;5074173;28;20006;-57
2022/09/09 01:33:47;;;;;;;;;;;563.40;2432.00;;;;;;5073962;28;19963;-57
2022/09/09 01:36:19;;;;;;;;;;;563.40;2432.00;;;;;;5073751;28;19951;-57
2022/09/09 01:38:45;;;;;;;;;;;563.30;2432.00;;;;;;5074152;28;19913;-57
2022/09/09 01:41:10;;;;;;;;;;;563.40;2432.00;;;;;;5073952;28;19935;-58
2022/09/09 01:43:37;;;;;;;;;;;563.40;2432.00;;;;;;5074066;28;19909;-57
2022/09/09 01:46:02;;;;;;;;;;;563.50;2432.00;;;;;;5073973;28;19962;-57
2022/09/09 01:48:28;;;;;;;;;;;563.50;2432.00;;;;;;5073776;28;19909;-57
2022/09/09 01:50:54;;;;;;;;;;;563.50;2432.00;;;;;;5073973;28;20376;-68
2022/09/09 01:53:20;;;;;;;;;;;563.50;2432.00;;;;;;5073527;28;19978;-58
2022/09/09 01:55:56;;;;;;;;;;;563.40;2432.00;;;;;;5073702;28;20385;-70
2022/09/09 01:58:35;;;;;;;;;;;563.50;2432.00;;;;;;5073609;28;19909;-58
2022/09/09 02:01:03;;;;;;;;;;;563.50;2432.00;;;;;;5073513;28;20373;-59
2022/09/09 02:03:31;;;;;;;;;;;563.50;2432.00;;;;;;5073733;28;19913;-58
2022/09/09 02:06:00;;;;;;;;;;;563.50;2432.00;;;;;;5073547;28;20271;-57
2022/09/09 02:08:48;;;;;;;;;;;563.40;2432.00;;;;;;5073547;28;19908;-58
2022/09/09 02:11:23;;;;;;;;;;;563.30;2432.00;;;;;;5073272;28;19908;-58
2022/09/09 02:13:51;;;;;;;;;;;563.20;2432.00;;;;;;5073123;28;19972;-69
2022/09/09 02:16:37;;;;;;;;;;;563.20;2432.00;;;;;;5072926;28;19913;-58
2022/09/09 02:19:10;;;;;;;;;;;563.20;2432.00;;;;;;5073309;28;19915;-61
2022/09/09 02:21:36;;;;;;;;;;;563.20;2432.00;;;;;;5073155;28;19948;-57
2022/09/09 02:24:04;;;;;;;;;;;563.20;2432.00;;;;;;5073016;28;19990;-58
2022/09/09 02:26:31;;;;;;;;;;;563.20;2432.00;;;;;;5072775;28;19916;-59
2022/09/09 02:28:58;;;;;;;;;;;563.20;2432.00;;;;;;5073012;28;20247;-59
2022/09/09 02:31:24;;;;;;;;;;;563.50;2432.00;;;;;;5073176;28;19954;-68
2022/09/09 02:34:00;;;;;;;;;;;563.60;2432.00;;;;;;5072618;28;20377;-58
2022/09/09 02:36:28;;;;;;;;;;;563.80;2432.00;;;;;;5073049;28;19951;-58
2022/09/09 02:38:54;;;;;;;;;;;563.90;2432.00;;;;;;5073205;28;19908;-68
2022/09/09 02:41:22;;;;;;;;;;;563.90;2432.00;;;;;;5073238;28;20012;-58
2022/09/09 02:43:48;;;;;;;;;;;563.90;2432.00;;;;;;5073291;28;19916;-58
2022/09/09 02:46:39;;;;;;;;;;;563.80;2432.00;;;;;;5072565;28;19912;-58
2022/09/09 02:49:20;;;;;;;;;;;563.70;2432.00;;;;;;5034248;28;19963;-70
2022/09/09 02:51:55;;;;;;;;;;;563.60;2432.00;;;;;;5072574;28;20011;-70
2022/09/09 02:54:30;;;;;;;;;;;538.50;2406.40;;;;;;5072648;28;19920;-58
2022/09/09 02:56:58;;;;;;;;;;;538.50;2406.40;;;;;;5072667;28;20341;-58
2022/09/09 02:59:24;;;;;;;;;;;538.50;2406.40;;;;;;5072566;28;19908;-62
2022/09/09 03:01:50;;;;;;;;;;;538.50;2406.40;;;;;;5072519;28;19915;-58
2022/09/09 03:04:16;;;;;;;;;;;538.50;2406.40;;;;;;5072464;28;20278;-58
2022/09/09 03:06:41;;;;;;;;;;;538.50;2406.40;;;;;;5072133;28;19908;-58
2022/09/09 03:09:07;;;;;;;;;;;538.40;2406.40;;;;;;5072424;28;19948;-57
2022/09/09 03:11:33;;;;;;;;;;;538.50;2406.40;;;;;;5072032;28;19912;-57
2022/09/09 03:13:58;;;;;;;;;;;538.50;2406.40;;;;;;5072242;28;19921;-69
2022/09/09 03:16:24;;;;;;;;;;;538.40;2406.40;;;;;;5072266;28;19953;-58
2022/09/09 03:18:50;;;;;;;;;;;538.30;2406.40;;;;;;5072142;28;20354;-58
2022/09/09 03:21:16;;;;;;;;;;;538.30;2406.40;;;;;;5072086;28;19923;-58
2022/09/09 03:23:41;;;;;;;;;;;538.40;2406.40;;;;;;5071616;28;19932;-58
2022/09/09 03:26:07;;;;;;;;;;;538.30;2406.40;;;;;;5072042;28;19908;-70
2022/09/09 03:28:33;;;;;;;;;;;538.20;2406.40;;;;;;5070711;28;20366;-68
2022/09/09 03:31:05;;;;;;;;;;;538.10;2406.40;;;;;;5071880;28;20409;-57
2022/09/09 03:33:31;;;;;;;;;;;538.00;2406.40;;;;;;5071420;28;20320;-58
2022/09/09 03:35:57;;;;;;;;;;;537.90;2406.40;;;;;;5071842;28;19913;-58
2022/09/09 03:38:23;;;;;;;;;;;537.80;2406.40;;;;;;5071689;28;19912;-57
2022/09/09 03:40:57;;;;;;;;;;;537.80;2406.40;;;;;;5071856;28;20317;-57
2022/09/09 03:43:23;;;;;;;;;;;537.80;2406.40;;;;;;5071614;28;19909;-58
2022/09/09 03:45:48;;;;;;;;;;;537.80;2406.40;;;;;;5071678;28;19999;-57
2022/09/09 03:48:15;;;;;;;;;;;537.80;2406.40;;;;;;5071618;28;19965;-68
2022/09/09 03:50:47;;;;;;;;;;;537.80;2406.40;;;;;;5071363;28;19908;-58
2022/09/09 03:53:14;;;;;;;;;;;537.80;2406.40;;;;;;5071449;28;19925;-58
2022/09/09 03:55:43;;;;;;;;;;;537.90;2406.40;;;;;;5071396;28;19919;-58
2022/09/09 03:58:08;;;;;;;;;;;537.90;2406.40;;;;;;5071491;28;20429;-58
2022/09/09 04:00:34;;;;;;;;;;;537.90;2406.40;;;;;;5071419;28;20003;-57
2022/09/09 04:03:00;;;;;;;;;;;537.80;2406.40;;;;;;5070981;28;19959;-58
2022/09/09 04:05:25;;;;;;;;;;;537.90;2406.40;;;;;;5071445;28;19909;-58
2022/09/09 04:07:51;;;;;;;;;;;537.90;2406.40;;;;;;5071272;28;20366;-58
2022/09/09 04:10:16;;;;;;;;;;;537.90;2406.40;;;;;;5071340;28;19909;-57
2022/09/09 04:12:42;;;;;;;;;;;537.90;2406.40;;;;;;5070926;28;19919;-58
2022/09/09 04:15:08;;;;;;;;;;;537.90;2406.40;;;;;;5070976;28;19909;-57
2022/09/09 04:17:33;;;;;;;;;;;537.90;2406.40;;;;;;5070695;28;19943;-61
2022/09/09 04:19:59;;;;;;;;;;;537.80;2406.40;;;;;;5070814;28;19919;-58
2022/09/09 04:22:24;;;;;;;;;;;537.80;2406.40;;;;;;5070993;28;19924;-58
2022/09/09 04:24:50;;;;;;;;;;;537.80;2406.40;;;;;;5070907;28;19913;-58
2022/09/09 04:27:15;;;;;;;;;;;537.90;2406.40;;;;;;5070973;28;19912;-58
2022/09/09 04:29:41;;;;;;;;;;;537.90;2406.40;;;;;;5070673;28;20007;-59
2022/09/09 04:32:06;;;;;;;;;;;538.00;2406.40;;;;;;5070744;28;19955;-70
2022/09/09 04:34:32;;;;;;;;;;;537.90;2406.40;;;;;;5070295;28;20011;-58
2022/09/09 04:36:58;;;;;;;;;;;537.90;2406.40;;;;;;5070750;28;19961;-70
2022/09/09 04:39:24;;;;;;;;;;;538.00;2406.40;;;;;;5070314;28;19912;-69
2022/09/09 04:41:50;;;;;;;;;;;538.00;2406.40;;;;;;5070764;28;19913;-58
2022/09/09 04:44:15;;;;;;;;;;;538.10;2406.40;;;;;;5070943;28;20319;-69
2022/09/09 04:46:41;;;;;;;;;;;538.10;2406.40;;;;;;5070618;28;19923;-57
2022/09/09 04:49:07;;;;;;;;;;;538.20;2406.40;;;;;;5070658;28;19912;-57
2022/09/09 04:51:32;;;;;;;;;;;538.20;2406.40;;;;;;5070184;28;19917;-57
2022/09/09 04:53:58;;;;;;;;;;;538.40;2406.40;;;;;;5070510;28;20013;-58
2022/09/09 04:56:26;;;;;;;;;;;538.40;2406.40;;;;;;5070488;28;19909;-63
2022/09/09 04:58:52;;;;;;;;;;;538.50;2406.40;;;;;;5070464;28;19940;-57
2022/09/09 05:01:19;;;;;;;;;;;538.40;2406.40;;;;;;5070654;28;19917;-57
2022/09/09 05:03:45;;;;;;;;;;;538.20;2406.40;;;;;;5070399;28;19909;-57
2022/09/09 05:06:12;;;;;;;;;;;538.20;2406.40;;;;;;5070291;28;19909;-57
2022/09/09 05:08:38;;;;;;;;;;;538.30;2406.40;;;;;;5070656;28;19934;-70
2022/09/09 05:11:04;;;;;;;;;;;538.40;2406.40;;;;;;5070376;28;19908;-57
2022/09/09 05:13:31;;;;;;;;;;;538.50;2406.40;;;;;;5070129;28;19921;-57
2022/09/09 05:15:57;;;;;;;;;;;538.40;2406.40;;;;;;5070458;28;19908;-58
2022/09/09 05:18:23;;;;;;;;;;;538.50;2406.40;;;;;;5070248;28;20270;-57
2022/09/09 05:20:49;;;;;;;;;;;538.50;2406.40;;;;;;5070198;28;19948;-58
2022/09/09 05:23:14;;;;;;;;;;;538.50;2406.40;;;;;;5070195;28;19925;-57
2022/09/09 05:25:43;;;;;;;;;;;538.40;2406.40;;;;;;5070133;28;19915;-58
2022/09/09 05:28:09;;;;;;;;;;;538.40;2406.40;;;;;;5070242;28;19954;-58
2022/09/09 05:30:34;;;;;;;;;;;538.50;2406.40;;;;;;5070219;28;19908;-57
2022/09/09 05:33:00;;;;;;;;;;;538.50;2406.40;;;;;;5069828;28;19919;-58
2022/09/09 05:35:25;;;;;;;;;;;563.20;2432.00;;;;;;5070120;28;19909;-58
2022/09/09 05:37:51;;;;;;;;;;;563.50;2432.00;;;;;;5069940;28;19908;-58
2022/09/09 05:40:16;;;;;;;;;;;563.60;2432.00;;;;;;5070222;28;19909;-70
2022/09/09 05:42:42;;;;;;;;;;;563.80;2432.00;;;;;;5069935;28;19908;-57
2022/09/09 05:45:08;;;;;;;;;;;564.10;2432.00;;;;;;5070268;28;20003;-57
2022/09/09 05:47:35;;;;;;;;;;;588.80;2432.00;;;;;;5069791;28;19962;-69
2022/09/09 05:50:00;;;;;;;;;;;589.30;2432.00;;;;;;5069926;28;20346;-57
2022/09/09 05:52:27;;;;;;;;;;;589.70;2432.00;;;;;;5071519;28;19956;-58
2022/09/09 05:54:54;;;;;;;;;;;614.60;2432.00;;;;;;5074003;28;19920;-57
2022/09/09 05:57:19;;;;;;;;;;;614.40;2432.00;;;;;;5073636;28;19982;-58
2022/09/09 05:59:45;;;;;;;;;;;614.60;2432.00;;;;;;5073780;28;19920;-57
2022/09/09 06:02:12;;;;;;;;;;;614.70;2432.00;;;;;;5073530;28;19912;-58
2022/09/09 06:04:38;;;;;;;;;;;614.60;2432.00;;;;;;5073420;28;19916;-58
2022/09/09 06:07:04;;;;;;;;;;;614.90;2432.00;;;;;;5073299;28;20290;-57
2022/09/09 06:09:30;;;;;;;;;;;614.90;2432.00;;;;;;5073409;28;19920;-58
2022/09/09 06:11:58;;;;;;;;;;;615.10;2432.00;;;;;;5073602;28;20335;-58
2022/09/09 06:14:25;;;;;;;;;;;615.00;2432.00;;;;;;5073213;28;19923;-58
2022/09/09 06:16:50;;;;;;;;;;;615.20;2432.00;;;;;;5073311;28;19916;-58
2022/09/09 06:19:16;;;;;;;;;;;640.30;2432.00;;;;;;5073256;28;19909;-57
2022/09/09 06:21:42;;;;;;;;;;;640.50;2432.00;;;;;;5072733;28;19913;-58
2022/09/09 06:24:07;;;;;;;;;;;640.70;2432.00;;;;;;5062057;28;19917;-56
2022/09/09 06:26:33;;;;;;;;;;;;;;;;;;5058090;28;19913;-56
2022/09/09 06:29:00;;;;;;;;;;;665.90;2432.00;;;;;;5053119;28;19952;-64
2022/09/09 06:31:29;;;;;;;;;;;691.40;2432.00;;;;;;5053094;28;19909;-59
2022/09/09 06:33:55;;;;;;;;;;;691.80;2432.00;;;;;;5052863;28;19924;-68
2022/09/09 06:36:23;;;;;;;;;;;692.10;2432.00;;;;;;5052793;28;19909;-58
2022/09/09 06:38:48;;;;;;;;;;;716.90;2432.00;;;;;;5052762;28;19909;-58
2022/09/09 06:41:16;;;;;;;;;;;717.60;2432.00;;;;;;5052856;28;19916;-59
2022/09/09 06:43:41;;;;;;;;;;;743.30;2380.80;;;;;;5052781;28;19932;-59
2022/09/09 06:46:08;;;;;;;;;;;743.20;2329.60;;;;;;5052758;28;20359;-58
2022/09/09 06:48:33;;;;;;;;;;;768.90;2227.20;;;;;;5052459;28;19956;-58
2022/09/09 06:51:06;;;;;;;;;;;794.10;2124.80;;;;;;5052637;28;19917;-58
2022/09/09 06:53:35;;;;;;;;;;;794.40;2048.00;;;;;;5052234;28;19974;-59
2022/09/09 06:56:10;;;;;;;;;;;820.00;1945.60;;;;;;5052519;28;19908;-59
2022/09/09 06:58:44;;;;;;;;;;;819.30;1920.00;;;;;;5052594;28;20367;-58
2022/09/09 07:01:14;;;;;;;;;;;819.40;1945.60;;;;;;5052262;28;20321;-58
2022/09/09 07:03:40;;;;;;;;;;;819.70;1971.20;;;;;;5052012;28;20294;-58
2022/09/09 07:06:07;;;;;;;;;;;819.30;1945.60;;;;;;5052583;28;19913;-58
2022/09/09 07:08:33;;;;;;;;;;;819.30;1945.60;;;;;;5052066;28;20366;-58
2022/09/09 07:11:02;;;;;;;;;;;794.20;1945.60;;;;;;5052177;28;19955;-59
2022/09/09 07:13:27;;;;;;;;;;;794.10;1945.60;;;;;;5052103;28;20015;-59
2022/09/09 07:15:53;;;;;;;;;;;819.60;1894.40;;;;;;5052017;28;19944;-59
2022/09/09 07:18:19;;;;;;;;;;;819.60;1868.80;;;;;;5051893;28;19955;-57
2022/09/09 07:20:54;;;;;;;;;;;819.40;1843.20;;;;;;5052127;28;19932;-58
2022/09/09 07:23:20;;;;;;;;;;;819.90;1817.60;;;;;;5051873;28;19925;-58
2022/09/09 07:25:47;;;;;;;;;;;845.50;1817.60;;;;;;5051952;28;19909;-57
2022/09/09 07:28:13;;;;;;;;;;;870.90;1740.80;;;;;;5051689;28;19913;-58
2022/09/09 07:30:38;;;;;;;;;;;896.30;1689.60;;;;;;5051899;28;19909;-59
2022/09/09 07:33:04;;;;;;;;;;;896.20;1689.60;;;;;;5051392;28;19971;-58
2022/09/09 07:35:30;;;;;;;;;;;921.70;1638.40;;;;;;5051500;28;19909;-59
2022/09/09 07:37:55;;;;;;;;;;;947.80;1510.40;;;;;;5051657;28;19909;-59
2022/09/09 07:40:21;;;;;;;;;;;973.20;1433.60;;;;;;5051517;28;19909;-60
2022/09/09 07:42:47;;;;;;;;;;;1024.40;1331.20;;;;;;5051711;28;19952;-59
2022/09/09 07:45:14;;;;;;;;;;;1024.60;1305.60;;;;;;5051347;28;20302;-59
2022/09/09 07:47:42;;;;;;;;;;;1024.10;1356.80;;;;;;5051279;28;20070;-60
2022/09/09 07:50:08;;;;;;;;;;;1050.40;1305.60;;;;;;5051570;28;19988;-59
2022/09/09 07:52:34;;;;;;;;;;;1076.10;1228.80;;;;;;5051213;28;20371;-60
2022/09/09 07:55:01;;;;;;;;;;;1126.70;1203.20;;;;;;5051352;28;19921;-60
2022/09/09 07:57:29;;;;;;;;;;;1127.10;1203.20;;;;;;5051315;28;19909;-59
2022/09/09 07:59:56;;;;;;;;;;;1177.70;1075.20;;;;;;5051515;28;19909;-59
2022/09/09 08:02:22;;;;;;;;;;;1152.90;1126.40;;;;;;5051214;28;20342;-59
2022/09/09 08:04:48;;;;;;;;;;;1152.60;1152.00;;;;;;5051101;28;19963;-59
2022/09/09 08:07:13;;;;;;;;;;;1127.10;1177.60;;;;;;5051046;28;19908;-59
2022/09/09 08:09:39;;;;;;;;;;;1177.80;1100.80;;;;;;5051130;28;19967;-59
2022/09/09 08:12:08;;;;;;;;;;;1178.50;1024.00;;;;;;5051246;28;19909;-59
2022/09/09 08:14:34;;;;;;;;;;;1203.20;1075.20;;;;;;5050171;28;19917;-58
2022/09/09 08:16:59;;;;;;;;;;;1203.40;1049.60;;;;;;5050757;28;19912;-59
2022/09/09 08:19:25;;;;;;;;;;;1203.70;1049.60;;;;;;5050947;28;19954;-59
2022/09/09 08:21:51;;;;;;;;;;;1178.30;1049.60;;;;;;5050229;28;20382;-59
2022/09/09 08:24:19;;;;;;;;;;;1178.20;1049.60;;;;;;5050844;28;19917;-59
2022/09/09 08:26:47;;;;;;;;;;;1178.30;1049.60;;;;;;5050912;28;19948;-59
2022/09/09 08:29:13;;;;;;;;;;;1178.20;1049.60;;;;;;5050618;28;19909;-59
2022/09/09 08:31:40;;;;;;;;;;;1203.40;1049.60;;;;;;5050817;28;19923;-59
2022/09/09 08:34:07;;;;;;;;;;;1203.40;1024.00;;;;;;5050759;28;19921;-59
2022/09/09 08:36:34;;;;;;;;;;;1203.90;998.40;;;;;;5050674;28;19909;-59
2022/09/09 08:39:00;;;;;;;;;;;1178.10;998.40;;;;;;5050648;28;19921;-59
2022/09/09 08:41:28;;;;;;;;;;;1178.10;998.40;;;;;;5050629;28;19909;-59
2022/09/09 08:44:04;;;;;;;;;;;1152.90;1024.00;;;;;;5047867;28;19916;-58
2022/09/09 08:46:33;;;;;;;;;;;1152.40;1049.60;;;;;;5048770;28;19919;-60
2022/09/09 08:49:34;;;;;;;;;;;1101.60;1075.20;;;;;;5049080;28;20008;-58
2022/09/09 08:52:01;;;;;;;;;;;1024.60;1152.00;;;;;;4948353;29;20397;-60
2022/09/09 08:54:28;;;;;;;;;;;998.90;1228.80;;;;;;4948510;29;19923;-59
2022/09/09 08:56:53;;;;;;;;;;;947.90;1280.00;;;;;;4947896;29;20389;-58
2022/09/09 08:59:19;;;;;;;;;;;922.00;1331.20;;;;;;4948604;29;19914;-58
2022/09/09 09:01:54;;;;;;;;;;;870.90;1382.40;;;;;;4948423;29;19921;-59
2022/09/09 09:04:19;;;;;;;;;;;871.30;1382.40;;;;;;4948507;29;20345;-59
2022/09/09 09:07:04;;;;;;;;;;;896.50;1433.60;;;;;;4948588;29;19915;-58
2022/09/09 09:09:30;;;;;;;;;;;896.50;1408.00;;;;;;4947872;29;20058;-59
2022/09/09 09:12:00;;;;;;;;;;;896.20;1382.40;;;;;;4948477;29;19941;-56
2022/09/09 09:14:27;;;;;;;;;;;871.30;1408.00;;;;;;4948327;29;20296;-58
2022/09/09 09:16:53;;;;;;;;;;;871.30;1433.60;;;;;;4948234;29;19966;-59
2022/09/09 09:19:22;;;;;;;;;;;871.20;1382.40;;;;;;4948261;29;19922;-59
2022/09/09 09:21:51;;;;;;;;;;;870.90;1408.00;;;;;;4950571;29;20369;-58
2022/09/09 09:24:16;;;;;;;;;;;870.50;1382.40;;;;;;4950437;29;19970;-58
2022/09/09 09:26:42;;;;;;;;;;;845.70;1408.00;;;;;;5029913;28;19913;-58
2022/09/09 09:29:10;;;;;;;;;;;844.80;1459.20;;;;;;5054390;28;19909;-58
2022/09/09 09:31:36;;;;;;;;;;;820.10;1433.60;;;;;;5054162;28;19915;-57
2022/09/09 09:34:02;;;;;;;;;;;820.10;1484.80;;;;;;5053804;28;19917;-57
2022/09/09 09:36:35;;;;;;;;;;;844.80;1536.00;;;;;;5054039;28;20000;-56
2022/09/09 09:39:03;;;;;;;;;;;820.10;1408.00;;;;;;5053917;28;19908;-56
2022/09/09 09:41:30;;;;;;;;;;;819.50;1433.60;;;;;;5053976;28;20000;-57
2022/09/09 09:43:55;;;;;;;;;;;819.50;1459.20;;;;;;5053933;28;19916;-58
2022/09/09 09:46:26;;;;;;;;;;;819.30;1510.40;;;;;;5053902;28;19908;-58
2022/09/09 09:48:58;;;;;;;;;;;819.50;1459.20;;;;;;5060477;28;19912;-57
2022/09/09 09:51:24;;;;;;;;;;;819.80;1459.20;;;;;;5062075;28;19963;-57
2022/09/09 09:53:52;;;;;;;;;;;819.80;1536.00;;;;;;5063241;28;19932;-58
2022/09/09 09:56:25;;;;;;;;;;;819.30;1536.00;;;;;;5072643;28;19913;-57
2022/09/09 09:58:53;;;;;;;;;;;794.40;1561.60;;;;;;5073740;28;20326;-58
2022/09/09 10:01:36;;;;;;;;;;;794.40;1612.80;;;;;;5073468;28;19935;-57
2022/09/09 10:04:13;;;;;;;;;;;819.70;1612.80;;;;;;5073180;28;19954;-56
2022/09/09 10:06:39;;;;;;;;;;;819.30;1561.60;;;;;;5073570;28;20015;-59
2022/09/09 10:09:21;;;;;;;;;;;794.50;1587.20;;;;;;5073734;28;19913;-59
2022/09/09 10:11:52;;;;;;;;;;;819.20;1587.20;;;;;;5073361;28;19908;-57
2022/09/09 10:14:36;;;;;;;;;;;793.90;1638.40;;;;;;5073449;28;19917;-58
2022/09/09 10:17:02;;;;;;;;;;;;;;;;;;5073021;28;19944;-58
2022/09/09 10:19:32;;;;;;;;;;;793.70;1664.00;;;;;;5073192;28;19920;-58
2022/09/09 10:22:16;;;;;;;;;;;768.80;1638.40;;;;;;5054629;28;19920;-56
2022/09/09 10:24:45;;;;;;;;;;;793.80;1664.00;;;;;;5062759;28;19920;-57
2022/09/09 10:27:11;;;;;;;;;;;793.80;1638.40;;;;;;5063222;28;20362;-58
2022/09/09 10:29:55;;;;;;;;;;;794.10;1664.00;;;;;;5067889;28;19912;-58
2022/09/09 10:32:24;;;;;;;;;;;794.20;1612.80;;;;;;5072830;28;19916;-58
2022/09/09 10:34:53;;;;;;;;;;;794.30;1612.80;;;;;;5072738;28;19969;-58
2022/09/09 10:37:23;;;;;;;;;;;794.50;1612.80;;;;;;5069957;28;19908;-57
2022/09/09 10:39:53;;;;;;;;;;;819.30;1638.40;;;;;;5071156;28;20358;-57
2022/09/09 10:42:24;;;;;;;;;;;819.30;1664.00;;;;;;5071683;28;19932;-58
2022/09/09 10:44:50;;;;;;;;;;;819.60;1638.40;;;;;;5071262;28;19916;-58
2022/09/09 10:47:24;;;;;;;;;;;794.50;1612.80;;;;;;5072518;28;20353;-58
2022/09/09 10:50:08;;;;;;;;;;;819.30;1638.40;;;;;;5072820;28;19916;-58
2022/09/09 10:52:34;;;;;;;;;;;819.50;1689.60;;;;;;5072307;28;20342;-59
2022/09/09 10:55:15;;;;;;;;;;;819.60;1638.40;;;;;;5072413;28;19963;-59
2022/09/09 10:57:43;;;;;;;;;;;819.30;1587.20;;;;;;5053814;28;19947;-58
2022/09/09 11:00:19;;;;;;;;;;;819.50;1587.20;;;;;;5072977;28;20356;-58
2022/09/09 11:02:47;;;;;;;;;;;794.40;1638.40;;;;;;5072346;28;19916;-58
2022/09/09 11:05:20;;;;;;;;;;;794.20;1664.00;;;;;;5071851;28;20021;-58
2022/09/09 11:07:50;;;;;;;;;;;793.80;1715.20;;;;;;5072733;28;19999;-59
2022/09/09 11:10:21;;;;;;;;;;;793.80;1664.00;;;;;;5072249;28;19912;-58
2022/09/09 11:43:56;;;;;;;;;;;819.80;1638.40;;;;;;5037944;23;19951;-58
2022/09/09 11:46:22;;;;;;;;;;;;;;;;;;5031894;28;19917;-58
2022/09/09 11:48:48;;;;;;;;;;;;;;;;;;5029525;28;20374;-58
2022/09/09 11:51:35;;;;;;;;;;;819.80;1612.80;;;;;;5013796;28;19910;-58
2022/09/09 11:54:19;;;;;;;;;;;819.50;1612.80;;;;;;5031680;28;19917;-58
2022/09/09 11:56:45;;;;;;;;;;;820.00;1612.80;;;;;;5031708;28;19931;-59
2022/09/09 11:59:21;;;;;;;;;;;819.60;1587.20;;;;;;5031512;28;20362;-58
2022/09/09 12:01:50;;;;;;;;;;;820.00;1587.20;;;;;;5030022;28;19914;-60
2022/09/09 12:04:18;;;;;;;;;;;819.30;1612.80;;;;;;5029438;28;19951;-58
2022/09/09 12:06:50;;;;;;;;;;;819.20;1612.80;;;;;;5030045;28;19982;-58
2022/09/09 12:09:19;;;;;;;;;;;819.30;1612.80;;;;;;5029730;28;19913;-58
2022/09/09 12:11:44;;;;;;;;;;;819.30;1612.80;;;;;;5029848;28;20134;-59
2022/09/09 12:14:36;;;;;;;;;;;794.50;1612.80;;;;;;5023980;28;19936;-58
2022/09/09 12:17:16;;;;;;;;;;;819.30;1664.00;;;;;;5014430;28;19917;-58
2022/09/09 12:19:42;;;;;;;;;;;819.50;1587.20;;;;;;5019848;28;20352;-60
2022/09/09 12:22:16;;;;;;;;;;;819.20;1612.80;;;;;;5017984;28;20000;-59
2022/09/09 12:24:51;;;;;;;;;;;794.50;1638.40;;;;;;5010042;28;19909;-58
2022/09/09 12:27:24;;;;;;;;;;;794.50;1638.40;;;;;;5009727;28;19909;-59
2022/09/09 12:29:50;;;;;;;;;;;794.40;1638.40;;;;;;5009509;28;19916;-59
2022/09/09 12:32:18;;;;;;;;;;;794.20;1638.40;;;;;;5009463;28;19918;-58
2022/09/09 12:34:49;;;;;;;;;;;768.90;1638.40;;;;;;5009616;28;19917;-61
2022/09/09 12:37:18;;;;;;;;;;;768.90;1664.00;;;;;;5009843;28;20428;-57
2022/09/09 12:39:46;;;;;;;;;;;768.90;1664.00;;;;;;5009472;28;19921;-59
2022/09/09 12:42:19;;;;;;;;;;;793.70;1689.60;;;;;;5009476;28;19963;-59
2022/09/09 12:44:51;;;;;;;;;;;768.60;1664.00;;;;;;5009351;28;19948;-59
2022/09/09 12:47:18;;;;;;;;;;;768.70;1638.40;;;;;;5009478;28;19916;-59
2022/09/09 12:49:44;;;;;;;;;;;768.90;1612.80;;;;;;5009379;28;19913;-58
2022/09/09 12:52:16;;;;;;;;;;;793.70;1715.20;;;;;;5009292;28;19983;-58
2022/09/09 12:54:46;;;;;;;;;;;794.10;1689.60;;;;;;5008992;28;20287;-59
2022/09/09 12:57:12;;;;;;;;;;;794.20;1638.40;;;;;;5009541;28;19913;-58
2022/09/09 12:59:39;;;;;;;;;;;794.00;1612.80;;;;;;5009353;28;19996;-59
2022/09/09 13:02:31;;;;;;;;;;;793.90;1638.40;;;;;;5008994;28;20035;-59
2022/09/09 13:05:05;;;;;;;;;;;793.60;1689.60;;;;;;5006740;28;19933;-60
2022/09/09 13:07:31;;;;;;;;;;;768.90;1715.20;;;;;;5009125;28;19936;-61
2022/09/09 13:09:56;;;;;;;;;;;768.90;1689.60;;;;;;5009101;28;20387;-58
2022/09/09 13:12:22;;;;;;;;;;;768.80;1689.60;;;;;;5009282;28;19910;-59
2022/09/09 13:14:50;;;;;;;;;;;768.50;1689.60;;;;;;5008821;28;19929;-60
2022/09/09 13:17:21;;;;;;;;;;;768.60;1689.60;;;;;;5009017;28;19913;-59
2022/09/09 13:19:47;;;;;;;;;;;793.60;1689.60;;;;;;5008706;28;19916;-60
2022/09/09 13:22:32;;;;;;;;;;;793.60;1715.20;;;;;;5008743;28;19913;-58
2022/09/09 13:25:02;;;;;;;;;;;794.10;1689.60;;;;;;5008571;28;20004;-60
2022/09/09 13:27:42;;;;;;;;;;;794.00;1664.00;;;;;;5010886;28;20008;-60
2022/09/09 13:30:22;;;;;;;;;;;768.70;1664.00;;;;;;5008638;28;19913;-59
2022/09/09 13:33:00;;;;;;;;;;;793.70;1689.60;;;;;;5008815;28;19928;-58
2022/09/09 13:35:26;;;;;;;;;;;793.80;1689.60;;;;;;5008696;28;19910;-60
2022/09/09 13:37:52;;;;;;;;;;;793.90;1638.40;;;;;;5009020;28;20606;-57
2022/09/09 13:40:19;;;;;;;;;;;794.00;1715.20;;;;;;5008529;28;19914;-60
2022/09/09 13:42:45;;;;;;;;;;;794.20;1689.60;;;;;;5008711;28;20795;-59
2022/09/09 13:45:21;;;;;;;;;;;794.10;1689.60;;;;;;5008621;28;20011;-59
2022/09/09 13:47:51;;;;;;;;;;;794.30;1715.20;;;;;;5007965;28;20286;-59
2022/09/09 13:50:23;;;;;;;;;;;794.30;1689.60;;;;;;5008564;28;20359;-59
2022/09/09 13:52:51;;;;;;;;;;;794.00;1689.60;;;;;;5008392;28;19929;-59
2022/09/09 13:55:17;;;;;;;;;;;794.00;1664.00;;;;;;5008310;28;20008;-58
2022/09/09 13:57:52;;;;;;;;;;;768.90;1689.60;;;;;;5013427;28;20026;-58
2022/09/09 14:00:17;;;;;;;;;;;768.80;1664.00;;;;;;5017696;28;19913;-57
2022/09/09 14:02:43;;;;;;;;;;;793.70;1715.20;;;;;;5017010;28;19913;-58
2022/09/09 14:05:11;;;;;;;;;;;768.90;1689.60;;;;;;5016650;28;20468;-59
2022/09/09 14:07:38;;;;;;;;;;;768.90;1664.00;;;;;;5017988;28;19913;-59
2022/09/09 14:10:04;;;;;;;;;;;768.70;1689.60;;;;;;5016698;28;19921;-59
2022/09/09 14:12:30;;;;;;;;;;;768.40;1740.80;;;;;;5016397;28;20055;-61
2022/09/09 14:14:55;;;;;;;;;;;768.60;1689.60;;;;;;5021380;28;20016;-59
2022/09/09 14:17:22;;;;;;;;;;;768.60;1715.20;;;;;;5020080;28;19913;-60
2022/09/09 14:19:47;;;;;;;;;;;768.50;1715.20;;;;;;5020221;28;19909;-60
2022/09/09 14:22:13;;;;;;;;;;;768.60;1715.20;;;;;;5021960;28;19939;-59
2022/09/09 14:24:39;;;;;;;;;;;768.60;1715.20;;;;;;5021212;28;20364;-60